Time;durP1;ratioP1;P1;durP2;ratioP2;P2;SDS_P1;SDS_P2;PMS_P1;PMS_P2;Temp;Humidity;BMP_temperature;BMP_pressure;BME280_temperature;BME280_humidity;BME280_pressure;Samples;Min_cycle;Max_cycle;Signal;HPM_P1;HPM_P2
2022/08/28 00:00:25;;;;;;;8.60;3.72;;;;;;;25.71;38.38;102079.66;5069709;28;20382;-72
2022/08/28 00:02:52;;;;;;;6.88;3.65;;;;;;;25.88;37.85;102081.44;5042345;28;20468;-72
2022/08/28 00:05:18;;;;;;;16.38;4.05;;;;;;;26.24;37.26;102077.66;5043132;28;20511;-72
2022/08/28 00:07:44;;;;;;;9.88;3.60;;;;;;;25.49;38.16;102079.97;5052701;28;20388;-72
2022/08/28 00:10:10;;;;;;;11.02;3.53;;;;;;;26.04;37.32;102086.81;5064470;28;20024;-72
2022/08/28 00:12:37;;;;;;;11.75;4.35;;;;;;;25.60;38.55;102083.88;5054930;28;20033;-72
2022/08/28 00:15:10;;;;;;;9.13;4.13;;;;;;;25.61;38.24;102082.91;5067643;28;20382;-73
2022/08/28 00:17:36;;;;;;;11.40;3.72;;;;;;;25.49;38.07;102089.81;5034367;28;20055;-73
2022/08/28 00:20:03;;;;;;;14.25;3.90;;;;;;;25.51;38.36;102088.78;5050763;28;20103;-72
2022/08/28 00:22:28;;;;;;;14.45;4.38;;;;;;;25.71;37.74;102086.84;5070042;28;20024;-72
2022/08/28 00:24:54;;;;;;;11.07;3.92;;;;;;;25.46;38.82;102088.16;5070643;28;20438;-72
2022/08/28 00:30:03;;;;;;;16.60;4.15;;;;;;;25.15;38.97;102084.38;5056797;28;20131;-72
2022/08/28 00:32:29;;;;;;;11.15;3.58;;;;;;;25.21;38.87;102086.75;5049916;28;20126;-73
2022/08/28 00:34:54;;;;;;;8.70;3.92;;;;;;;25.35;39.36;102085.19;5047019;28;20062;-72
2022/08/28 00:37:20;;;;;;;11.77;4.38;;;;;;;25.40;38.80;102091.16;5035216;28;20365;-72
2022/08/28 00:39:46;;;;;;;11.10;3.72;;;;;;;25.52;38.32;102093.16;5034085;28;20025;-72
2022/08/28 00:42:12;;;;;;;9.80;4.32;;;;;;;25.53;38.04;102092.22;5066984;28;20107;-72
2022/08/28 00:44:38;;;;;;;10.02;4.10;;;;;;;25.30;38.77;102095.25;5055415;28;20127;-72
2022/08/28 00:47:03;;;;;;;11.45;4.10;;;;;;;25.31;38.57;102091.63;5069827;28;20024;-72
2022/08/28 00:49:34;;;;;;;8.07;3.58;;;;;;;25.28;38.42;102092.66;5069292;28;20031;-72
2022/08/28 00:52:10;;;;;;;12.93;4.25;;;;;;;24.52;40.43;102096.44;5044508;28;20052;-72
2022/08/28 00:54:41;;;;;;;11.27;4.05;;;;;;;24.72;39.90;102089.25;5063021;28;20055;-72
2022/08/28 00:57:12;;;;;;;12.32;4.10;;;;;;;24.83;39.65;102092.25;5063522;28;20089;-72
2022/08/28 00:59:38;;;;;;;9.75;3.80;;;;;;;24.88;40.05;102090.22;5052965;28;20032;-72
2022/08/28 01:02:05;;;;;;;9.98;4.30;;;;;;;24.73;40.07;102096.34;5039544;28;20366;-72
2022/08/28 01:04:32;;;;;;;7.68;3.47;;;;;;;24.89;39.28;102091.06;5064571;28;20024;-72
2022/08/28 01:06:59;;;;;;;14.82;5.40;;;;;;;24.77;39.39;102097.03;5036511;28;20044;-72
2022/08/28 01:09:28;;;;;;;15.35;4.35;;;;;;;24.83;39.59;102086.91;5059980;28;20119;-72
2022/08/28 01:12:00;;;;;;;8.40;4.40;;;;;;;25.04;39.41;102097.44;5057072;28;20102;-72
2022/08/28 01:14:28;;;;;;;10.00;4.43;;;;;;;24.94;39.76;102090.84;5071383;28;20044;-72
2022/08/28 01:16:56;;;;;;;9.85;3.75;;;;;;;24.78;39.20;102088.94;5069251;28;20021;-72
2022/08/28 01:19:47;;;;;;;12.00;4.43;;;;;;;25.12;39.40;102092.56;5042255;28;20032;-72
2022/08/28 01:22:28;;;;;;;9.73;3.90;;;;;;;24.84;40.10;102091.31;5055721;28;20143;-72
2022/08/28 01:24:56;;;;;;;14.20;4.57;;;;;;;24.79;40.17;102090.69;5067999;28;20536;-72
2022/08/28 01:27:22;;;;;;;11.27;4.65;;;;;;;24.74;39.88;102087.38;5048228;28;20448;-72
2022/08/28 01:29:48;;;;;;;11.32;4.20;;;;;;;24.85;40.16;102085.03;5038351;28;20124;-72
2022/08/28 01:32:26;;;;;;;11.52;4.32;;;;;;;24.94;39.55;102090.84;5033241;28;20025;-72
2022/08/28 01:34:52;;;;;;;10.65;4.10;;;;;;;25.08;39.44;102091.00;5048582;28;20036;-72
2022/08/28 01:37:17;;;;;;;11.07;4.13;;;;;;;25.21;38.93;102086.75;5056197;28;20032;-72
2022/08/28 01:39:42;;;;;;;10.82;4.15;;;;;;;24.81;40.06;102083.47;5041685;28;20442;-72
2022/08/28 01:42:08;;;;;;;11.93;4.13;;;;;;;25.04;39.56;102084.06;5069280;28;20028;-72
2022/08/28 01:44:33;;;;;;;10.27;3.92;;;;;;;25.12;38.93;102092.56;5056998;28;20045;-72
2022/08/28 01:46:58;;;;;;;10.68;4.13;;;;;;;24.45;40.87;102091.47;5055956;28;20460;-72
2022/08/28 01:49:28;;;;;;;13.20;4.07;;;;;;;25.17;39.23;102084.28;5061257;28;20040;-72
2022/08/28 01:51:53;;;;;;;8.50;4.00;;;;;;;25.26;39.24;102083.81;5067009;28;20087;-72
2022/08/28 01:54:19;;;;;;;9.82;3.85;;;;;;;25.06;39.76;102092.91;5064876;28;20032;-72
2022/08/28 01:56:45;;;;;;;10.23;3.75;;;;;;;24.71;40.19;102096.41;5040823;28;20025;-72
2022/08/28 01:59:11;;;;;;;16.95;5.40;;;;;;;24.68;40.11;102093.03;5041249;28;20093;-72
2022/08/28 02:01:38;;;;;;;10.18;4.22;;;;;;;24.67;40.38;102096.63;5066634;28;20377;-72
2022/08/28 02:04:04;;;;;;;11.05;4.57;;;;;;;25.07;39.82;102099.97;5047723;28;20025;-72
2022/08/28 02:06:31;;;;;;;10.18;3.72;;;;;;;25.04;39.62;102097.44;5061332;28;20029;-72
2022/08/28 02:08:58;;;;;;;11.90;3.80;;;;;;;24.86;40.36;102096.59;5072546;28;20110;-72
2022/08/28 02:11:24;;;;;;;9.02;4.00;;;;;;;25.20;39.39;102109.09;5075685;28;20028;-72
2022/08/28 02:13:52;;;;;;;12.25;4.45;;;;;;;25.09;39.40;102108.78;5057437;28;20434;-72
2022/08/28 02:16:17;;;;;;;8.93;4.18;;;;;;;24.96;39.61;102099.66;5075164;28;20484;-72
2022/08/28 02:18:43;;;;;;;9.45;4.88;;;;;;;24.76;40.36;102108.66;5072200;28;20036;-72
2022/08/28 02:21:10;;;;;;;9.73;4.30;;;;;;;25.05;39.37;102107.22;5063961;28;20112;-72
2022/08/28 02:23:40;;;;;;;11.40;3.97;;;;;;;24.63;40.22;102108.41;5071941;28;20530;-74
2022/08/28 02:26:07;;;;;;;6.32;4.03;;;;;;;25.17;39.78;102106.59;5075919;28;20025;-72
2022/08/28 02:28:32;;;;;;;8.40;4.00;;;;;;;24.62;40.32;102098.66;5071822;28;20476;-72
2022/08/28 02:30:58;;;;;;;9.40;4.38;;;;;;;24.73;40.65;102102.56;5077755;28;20035;-72
2022/08/28 02:33:24;;;;;;;7.93;3.92;;;;;;;25.16;39.35;102106.66;5066813;28;20021;-72
2022/08/28 02:35:50;;;;;;;8.32;4.13;;;;;;;24.95;39.93;102105.94;5066665;28;20473;-72
2022/08/28 02:38:16;;;;;;;9.93;4.45;;;;;;;24.73;40.86;102105.22;5077315;28;20032;-72
2022/08/28 02:40:42;;;;;;;19.70;6.00;;;;;;;24.62;40.92;102098.66;5056081;28;20480;-72
2022/08/28 02:43:07;;;;;;;11.95;4.25;;;;;;;24.92;40.30;102100.75;5073406;28;20113;-72
2022/08/28 02:45:33;;;;;;;10.57;4.72;;;;;;;25.10;39.92;102107.84;5073810;28;20438;-72
2022/08/28 02:48:00;;;;;;;12.98;4.22;;;;;;;24.67;40.60;102113.53;5080577;28;20024;-72
2022/08/28 02:50:28;;;;;;;10.90;4.25;;;;;;;24.65;41.01;102114.56;5095961;28;20027;-72
2022/08/28 02:52:54;;;;;;;11.60;4.85;;;;;;;24.62;40.67;102117.38;5089570;28;20020;-73
2022/08/28 02:55:19;;;;;;;10.10;4.45;;;;;;;24.82;40.10;102106.56;5064527;28;20472;-72
2022/08/28 02:57:46;;;;;;;13.15;4.28;;;;;;;24.79;40.91;102112.06;5077154;28;20403;-72
2022/08/28 03:00:15;;;;;;;11.02;4.07;;;;;;;25.06;39.93;102114.31;5068941;28;20414;-72
2022/08/28 03:02:41;;;;;;;10.10;4.60;;;;;;;25.16;39.28;102115.53;5080956;28;20028;-72
2022/08/28 03:05:08;;;;;;;10.45;4.32;;;;;;;25.08;39.81;102117.75;5079497;28;20081;-72
2022/08/28 03:07:33;;;;;;;8.18;4.10;;;;;;;24.78;40.20;102120.16;5076469;28;20032;-72
2022/08/28 03:09:59;;;;;;;9.27;4.40;;;;;;;25.19;39.36;102119.88;5076442;28;20089;-71
2022/08/28 03:12:24;;;;;;;9.35;3.95;;;;;;;24.58;40.17;102123.78;5089996;28;20464;-72
2022/08/28 03:14:51;;;;;;;9.07;4.43;;;;;;;24.71;40.37;102119.59;5060201;28;20434;-72
2022/08/28 03:17:17;;;;;;;12.52;4.18;;;;;;;24.96;40.27;102113.88;5089383;28;20024;-72
2022/08/28 03:19:42;;;;;;;9.55;4.18;;;;;;;25.11;39.62;102116.72;5064801;28;20502;-72
2022/08/28 03:22:08;;;;;;;11.05;4.40;;;;;;;24.41;41.35;102120.13;5086179;28;20349;-72
2022/08/28 03:24:33;;;;;;;11.07;4.38;;;;;;;24.75;40.21;102113.16;5084434;28;20107;-72
2022/08/28 03:27:00;;;;;;;8.68;3.72;;;;;;;24.56;40.70;102116.72;5074532;28;20052;-72
2022/08/28 03:29:26;;;;;;;10.07;4.18;;;;;;;24.69;40.82;102121.50;5061219;28;20444;-72
2022/08/28 03:31:51;;;;;;;11.60;4.72;;;;;;;24.61;40.73;102127.22;5091117;28;20074;-72
2022/08/28 03:34:17;;;;;;;9.52;4.63;;;;;;;24.43;41.03;102120.94;5068160;28;20479;-72
2022/08/28 03:36:42;;;;;;;12.45;3.80;;;;;;;24.92;40.06;102116.78;5065905;28;20079;-72
2022/08/28 03:39:08;;;;;;;10.13;4.18;;;;;;;24.79;40.30;102113.88;5065562;28;20036;-72
2022/08/28 03:41:34;;;;;;;9.20;4.30;;;;;;;24.89;40.56;102112.47;5085478;28;20036;-72
2022/08/28 03:44:01;;;;;;;10.40;4.22;;;;;;;24.51;41.11;102116.06;5075901;28;20049;-72
2022/08/28 03:46:31;;;;;;;8.68;4.30;;;;;;;24.60;40.70;102127.25;5052605;28;20400;-72
2022/08/28 03:48:58;;;;;;;10.90;4.85;;;;;;;24.92;39.94;102122.16;5071166;28;20047;-72
2022/08/28 03:51:26;;;;;;;8.40;4.05;;;;;;;24.69;40.34;102134.88;5038943;28;20041;-71
2022/08/28 03:53:52;;;;;;;13.20;4.38;;;;;;;24.64;40.52;102144.91;5071034;28;20043;-72
2022/08/28 03:56:21;;;;;;;9.20;4.20;;;;;;;24.69;40.80;102141.06;5046574;28;20029;-72
2022/08/28 03:58:50;;;;;;;11.82;4.43;;;;;;;24.66;40.79;102135.00;5055572;28;20028;-72
2022/08/28 04:01:16;;;;;;;9.27;4.30;;;;;;;24.62;40.47;102142.31;5071912;28;20543;-72
2022/08/28 04:03:41;;;;;;;7.40;3.95;;;;;;;24.67;40.58;102142.06;5048059;28;20192;-71
2022/08/28 04:06:06;;;;;;;15.02;4.50;;;;;;;24.84;39.90;102142.13;5034939;28;20131;-72
2022/08/28 04:08:32;;;;;;;8.38;4.07;;;;;;;24.78;40.09;102145.09;5067537;28;20126;-73
2022/08/28 04:10:59;;;;;;;10.70;4.20;;;;;;;24.75;40.35;102139.91;5064176;28;20399;-72
2022/08/28 04:13:25;;;;;;;11.35;4.40;;;;;;;24.47;40.94;102143.88;5066928;28;20124;-72
2022/08/28 04:16:03;;;;;;;8.00;4.18;;;;;;;24.49;40.47;102146.47;5055433;28;20059;-72
2022/08/28 04:18:29;;;;;;;10.60;3.88;;;;;;;24.95;39.19;102135.34;5072214;28;20024;-72
2022/08/28 04:21:06;;;;;;;12.57;5.40;;;;;;;24.64;39.81;102144.91;5065349;28;20381;-72
2022/08/28 04:23:32;;;;;;;10.35;5.50;;;;;;;24.62;40.74;102149.44;5038598;28;21308;-72
2022/08/28 04:25:59;;;;;;;9.32;4.50;;;;;;;24.48;40.98;102153.66;5063964;28;20037;-72
2022/08/28 04:28:25;;;;;;;15.48;4.53;;;;;;;24.25;40.83;102153.84;5068840;28;20055;-72
2022/08/28 04:30:53;;;;;;;9.50;4.65;;;;;;;24.77;39.97;102151.41;5065751;28;20059;-71
2022/08/28 04:33:19;;;;;;;8.98;4.00;;;;;;;24.85;39.50;102159.91;5034261;28;20024;-72
2022/08/28 04:35:45;;;;;;;8.13;4.22;;;;;;;24.41;40.48;102149.50;5051981;28;20041;-72
2022/08/28 04:38:10;;;;;;;9.32;4.40;;;;;;;24.46;40.58;102146.63;5052640;28;20530;-72
2022/08/28 04:40:39;;;;;;;10.45;4.90;;;;;;;24.38;39.94;102149.66;5044678;28;20396;-73
2022/08/28 04:43:04;;;;;;;8.32;4.30;;;;;;;24.22;40.21;102150.41;5042632;28;20064;-72
2022/08/28 04:45:30;;;;;;;6.88;4.05;;;;;;;24.80;38.89;102145.88;5066420;28;20088;-72
2022/08/28 04:47:56;;;;;;;10.80;4.20;;;;;;;24.44;39.43;102157.41;5072250;28;20044;-72
2022/08/28 04:50:21;;;;;;;7.95;3.80;;;;;;;24.47;39.51;102154.59;5054445;28;20066;-72
2022/08/28 04:52:46;;;;;;;8.15;3.75;;;;;;;24.78;38.25;102157.59;5050635;28;20505;-72
2022/08/28 04:55:13;;;;;;;6.97;3.78;;;;;;;24.08;40.42;102155.50;5060955;28;20036;-72
2022/08/28 04:57:38;;;;;;;9.50;3.65;;;;;;;24.17;40.13;102168.44;5042476;28;20021;-72
2022/08/28 05:00:05;;;;;;;10.38;4.20;;;;;;;23.46;41.40;102160.91;5040914;28;20025;-72
2022/08/28 05:02:31;;;;;;;8.45;4.07;;;;;;;23.73;41.16;102163.31;5044932;28;20112;-72
2022/08/28 05:04:56;;;;;;;7.43;4.07;;;;;;;23.62;41.25;102157.56;5047751;28;20115;-72
2022/08/28 05:07:22;;;;;;;10.20;4.57;;;;;;;24.07;40.73;102166.25;5033740;28;20413;-72
2022/08/28 05:09:51;;;;;;;9.23;4.60;;;;;;;24.03;41.36;102170.91;5052028;28;20121;-72
2022/08/28 05:12:18;;;;;;;8.40;4.28;;;;;;;24.03;41.05;102173.56;5066283;28;20020;-72
2022/08/28 05:14:43;;;;;;;11.02;4.20;;;;;;;24.26;41.15;102168.94;5043934;28;20055;-72
2022/08/28 05:17:12;;;;;;;11.25;4.55;;;;;;;24.27;41.06;102173.34;5069267;28;20021;-72
2022/08/28 05:19:37;;;;;;;9.88;4.38;;;;;;;24.55;40.72;102173.78;5068664;28;20032;-72
2022/08/28 05:22:03;;;;;;;13.52;4.80;;;;;;;24.43;41.53;102174.38;5051302;28;20028;-71
2022/08/28 05:24:28;;;;;;;9.35;4.68;;;;;;;24.72;40.58;102180.16;5060433;28;20012;-72
2022/08/28 05:26:54;;;;;;;12.23;4.78;;;;;;;24.48;41.67;102180.38;5055156;28;20081;-72
2022/08/28 05:29:19;;;;;;;12.15;4.35;;;;;;;24.65;41.13;102187.59;5065037;28;20468;-72
2022/08/28 05:31:46;;;;;;;9.73;4.28;;;;;;;25.21;40.55;102177.72;5066679;28;20040;-72
2022/08/28 05:34:11;;;;;;;8.38;4.28;;;;;;;24.58;42.08;102187.91;5050401;28;20020;-72
2022/08/28 05:36:38;;;;;;;9.07;4.40;;;;;;;24.65;41.90;102186.75;5041389;28;20028;-72
2022/08/28 05:39:06;;;;;;;10.82;4.63;;;;;;;24.98;41.69;102181.53;5044410;28;20480;-72
2022/08/28 05:41:32;;;;;;;10.73;4.18;;;;;;;24.37;43.28;102180.88;5051601;28;20384;-72
2022/08/28 05:44:00;;;;;;;12.18;3.78;;;;;;;24.48;43.45;102192.84;5041990;28;20052;-72
2022/08/28 05:46:27;;;;;;;7.40;4.10;;;;;;;25.58;40.91;102191.00;5050749;28;20056;-72
2022/08/28 05:48:53;;;;;;;9.15;3.70;;;;;;;25.18;41.96;102188.56;5033363;28;20545;-72
2022/08/28 05:51:21;;;;;;;5.45;3.28;;;;;;;25.53;41.24;102183.22;5051636;28;20755;-72
2022/08/28 05:53:48;;;;;;;11.60;3.97;;;;;;;25.81;40.94;102180.91;5051905;28;20133;-72
2022/08/28 05:56:16;;;;;;;12.82;3.80;;;;;;;25.73;40.87;102178.63;5059347;28;20033;-72
2022/08/28 05:58:42;;;;;;;10.02;3.63;;;;;;;25.32;42.24;102184.31;5053383;28;20032;-72
2022/08/28 06:01:09;;;;;;;6.35;3.38;;;;;;;25.30;42.52;102186.22;5040917;28;20033;-72
2022/08/28 06:03:36;;;;;;;7.35;3.72;;;;;;;26.15;40.62;102188.00;5055763;28;20035;-72
2022/08/28 06:06:02;;;;;;;10.85;3.22;;;;;;;25.19;42.61;102190.28;5037107;28;20031;-72
2022/08/28 06:08:29;;;;;;;10.20;3.42;;;;;;;26.44;40.21;102190.91;5064341;28;20024;-72
2022/08/28 06:10:55;;;;;;;9.40;3.35;;;;;;;24.58;44.16;102195.94;5033410;28;20060;-73
2022/08/28 06:13:20;;;;;;;8.30;2.88;;;;;;;25.73;42.10;102179.53;5032710;28;20401;-72
2022/08/28 06:15:47;;;;;;;8.38;3.30;;;;;;;26.00;41.29;102187.00;5052200;28;20039;-72
2022/08/28 06:18:13;;;;;;;13.30;3.45;;;;;;;24.43;43.93;102195.75;5043551;28;20039;-72
2022/08/28 06:20:43;;;;;;;12.02;3.22;;;;;;;25.07;43.38;102196.25;5051390;28;20107;-72
2022/08/28 06:23:11;;;;;;;11.75;3.28;;;;;;;25.62;42.07;102189.06;5064050;28;20081;-72
2022/08/28 06:25:44;;;;;;;10.23;2.88;;;;;;;26.20;40.88;102194.00;5032835;28;20028;-72
2022/08/28 06:28:10;;;;;;;7.35;3.55;;;;;;;26.19;40.37;102192.25;5033404;28;20032;-72
2022/08/28 06:30:37;;;;;;;6.38;2.67;;;;;;;24.06;44.56;102202.78;5034901;28;20033;-72
2022/08/28 06:33:04;;;;;;;9.45;2.75;;;;;;;24.24;44.47;102202.91;5032454;28;20032;-72
2022/08/28 06:35:30;;;;;;;8.05;3.00;;;;;;;26.37;40.37;102195.72;5060993;28;20028;-72
2022/08/28 06:37:56;;;;;;;12.48;2.45;;;;;;;26.29;40.12;102199.81;5034259;28;20037;-72
2022/08/28 06:40:22;;;;;;;12.57;3.20;;;;;;;25.32;41.67;102205.72;5033132;28;20028;-72
2022/08/28 06:42:47;;;;;;;8.48;2.80;;;;;;;25.49;41.88;102211.09;5071246;28;20074;-72
2022/08/28 06:45:13;;;;;;;9.30;2.40;;;;;;;26.19;40.68;102213.69;5067645;28;20082;-73
2022/08/28 06:47:38;;;;;;;8.07;2.28;;;;;;;26.11;40.60;102210.56;5075598;28;20073;-72
2022/08/28 06:50:04;;;;;;;6.85;2.20;;;;;;;25.44;42.23;102215.81;5089164;28;20036;-72
2022/08/28 06:52:29;;;;;;;7.43;2.20;;;;;;;25.88;40.92;102209.09;5063635;28;20040;-72
2022/08/28 06:54:56;;;;;;;5.53;2.40;;;;;;;25.71;40.74;102213.53;5081923;28;20044;-73
2022/08/28 06:57:21;;;;;;;11.05;3.00;;;;;;;25.78;40.82;102214.06;5062017;28;20174;-72
2022/08/28 06:59:48;;;;;;;9.20;2.72;;;;;;;26.26;41.12;102208.00;5092223;28;20111;-72
2022/08/28 07:02:13;;;;;;;9.95;2.88;;;;;;;26.28;41.02;102216.81;5076889;28;20073;-72
2022/08/28 07:04:39;;;;;;;9.18;2.53;;;;;;;26.20;39.82;102215.44;5094744;28;20028;-72
2022/08/28 07:07:05;;;;;;;9.15;2.58;;;;;;;26.31;39.43;102211.28;5070764;28;20025;-72
2022/08/28 07:09:31;;;;;;;8.70;2.53;;;;;;;25.69;40.29;102218.13;5058946;28;20027;-73
2022/08/28 07:11:56;;;;;;;9.48;2.15;;;;;;;26.44;39.71;102217.69;5072962;28;20023;-72
2022/08/28 07:14:22;;;;;;;11.75;2.58;;;;;;;26.07;40.23;102217.03;5065101;28;20086;-72
2022/08/28 07:16:48;;;;;;;8.20;2.80;;;;;;;26.73;38.93;102217.91;5094584;28;20130;-72
2022/08/28 07:19:15;;;;;;;7.82;1.90;;;;;;;26.61;39.50;102219.44;5076310;28;20036;-71
2022/08/28 07:21:42;;;;;;;9.88;2.53;;;;;;;26.61;39.59;102223.94;5087208;28;20568;-72
2022/08/28 07:24:10;;;;;;;6.32;2.15;;;;;;;27.03;38.21;102222.47;5055327;28;20373;-72
2022/08/28 07:26:36;;;;;;;9.88;2.10;;;;;;;25.38;40.97;102237.56;5060887;28;20052;-72
2022/08/28 07:29:03;;;;;;;10.38;2.17;;;;;;;27.25;38.49;102230.97;5079223;28;20104;-72
2022/08/28 07:31:28;;;;;;;10.30;2.15;;;;;;;27.86;36.85;102233.66;5066070;28;20094;-72
2022/08/28 07:33:54;;;;;;;7.72;2.40;;;;;;;28.67;36.07;102237.56;5054655;28;20021;-72
2022/08/28 07:36:23;;;;;;;10.82;3.00;;;;;;;29.43;34.16;102240.69;5055889;28;20035;-72
2022/08/28 07:38:49;;;;;;;8.73;2.33;;;;;;;28.77;35.20;102235.19;5055816;28;20531;-72
2022/08/28 07:41:20;;;;;;;8.23;2.15;;;;;;;29.42;34.31;102249.72;5072376;28;20100;-71
2022/08/28 07:46:31;;;;;;;7.97;2.20;;;;;;;31.05;31.04;102252.59;5055468;28;20039;-72
2022/08/28 07:48:57;;;;;;;5.85;1.77;;;;;;;31.53;30.11;102249.84;5072939;28;20569;-72
2022/08/28 07:51:24;;;;;;;7.10;1.92;;;;;;;30.27;32.10;102252.78;5073898;28;20044;-72
2022/08/28 07:53:49;;;;;;;10.00;2.00;;;;;;;29.65;32.90;102249.97;5071125;28;20123;-72
2022/08/28 07:56:15;;;;;;;8.52;1.45;;;;;;;30.80;31.22;102265.19;5040378;28;20155;-72
2022/08/28 07:58:40;;;;;;;8.07;1.98;;;;;;;31.77;30.36;102248.94;5040993;28;20068;-72
2022/08/28 08:01:06;;;;;;;5.68;1.92;;;;;;;32.63;29.36;102261.00;5046987;28;20025;-72
2022/08/28 08:03:31;;;;;;;5.35;2.15;;;;;;;34.73;26.13;102255.66;5044803;28;20078;-72
2022/08/28 08:06:01;;;;;;;4.88;1.75;;;;;;;35.07;25.34;102257.16;5051469;28;20025;-72
2022/08/28 08:08:28;;;;;;;6.80;2.00;;;;;;;35.69;25.13;102262.25;5079186;28;20024;-72
2022/08/28 08:11:00;;;;;;;8.35;1.58;;;;;;;34.38;25.52;102264.31;5070506;28;20091;-72
2022/08/28 08:13:26;;;;;;;8.07;2.45;;;;;;;35.44;24.21;102270.88;5042775;28;20040;-72
2022/08/28 08:15:51;;;;;;;3.58;1.52;;;;;;;34.05;24.90;102266.28;5043461;28;20410;-71
2022/08/28 08:18:17;;;;;;;3.00;1.15;;;;;;;33.00;26.31;102280.59;5038005;28;20041;-72
2022/08/28 08:20:43;;;;;;;6.40;1.45;;;;;;;33.25;27.60;102279.41;5058282;28;20033;-72
2022/08/28 08:23:08;;;;;;;7.22;1.15;;;;;;;34.42;25.41;102265.75;5060715;28;20021;-71
2022/08/28 08:25:34;;;;;;;7.60;1.42;;;;;;;33.68;25.57;102277.63;5059200;28;20135;-71
2022/08/28 08:27:59;;;;;;;5.47;1.40;;;;;;;33.93;25.83;102279.91;5044087;28;20477;-71
2022/08/28 08:30:25;;;;;;;6.30;1.63;;;;;;;34.04;25.51;102276.25;5044989;28;20021;-71
2022/08/28 08:32:50;;;;;;;3.55;1.35;;;;;;;33.16;26.22;102275.63;5045603;28;20051;-71
2022/08/28 08:35:16;;;;;;;3.50;1.30;;;;;;;33.13;25.91;102281.31;5050882;28;20032;-71
2022/08/28 08:37:41;;;;;;;5.38;1.35;;;;;;;33.31;26.47;102274.34;5071965;28;20024;-71
2022/08/28 08:40:07;;;;;;;7.25;1.38;;;;;;;33.15;26.79;102263.94;5043406;28;20623;-71
2022/08/28 08:42:35;;;;;;;9.75;1.45;;;;;;;31.99;28.15;102260.75;5052709;28;20079;-71
2022/08/28 08:45:03;;;;;;;3.97;1.42;;;;;;;32.07;27.94;102263.72;5053826;28;20063;-72
2022/08/28 08:47:39;;;;;;;7.10;1.38;;;;;;;32.73;27.13;102268.41;5056990;28;20516;-72
2022/08/28 08:50:07;;;;;;;9.32;1.50;;;;;;;33.08;27.92;102276.25;5062688;28;20036;-71
2022/08/28 08:53:01;;;;;;;5.55;1.50;;;;;;;33.12;26.40;102272.31;5033174;28;20108;-71
2022/08/28 08:55:30;;;;;;;7.13;1.55;;;;;;;36.00;23.74;102261.03;5063912;28;20382;-72
2022/08/28 08:58:08;;;;;;;5.05;1.60;;;;;;;34.60;24.86;102257.78;5045889;28;20103;-71
2022/08/28 09:00:42;;;;;;;2.20;1.30;;;;;;;34.37;24.93;102259.88;5039966;28;20029;-72
2022/08/28 09:03:21;;;;;;;5.45;1.23;;;;;;;32.29;27.03;102266.44;5034428;28;20094;-71
2022/08/28 09:06:04;;;;;;;6.32;1.42;;;;;;;35.03;23.33;102266.59;5037714;28;20111;-71
2022/08/28 09:08:35;;;;;;;5.25;1.30;;;;;;;35.97;23.43;102261.34;5052550;28;20060;-71
2022/08/28 09:11:36;;;;;;;4.63;1.48;;;;;;;33.60;25.86;102276.41;5036387;28;20370;-71
2022/08/28 09:14:14;;;;;;;3.17;1.52;;;;;;;34.03;25.96;102265.56;4993482;28;20037;-71
2022/08/28 09:16:43;;;;;;;6.05;1.25;;;;;;;32.53;26.73;102270.84;5065917;28;20044;-72
2022/08/28 09:19:12;;;;;;;8.30;1.83;;;;;;;31.68;28.02;102276.69;5048732;28;20449;-73
2022/08/28 09:21:43;;;;;;;3.67;1.38;;;;;;;30.98;28.98;102275.59;5033892;28;20025;-71
2022/08/28 09:24:22;;;;;;;5.90;1.42;;;;;;;31.59;29.13;102276.41;5067658;28;20028;-71
2022/08/28 09:26:58;;;;;;;3.65;1.50;;;;;;;30.47;29.98;102274.78;5053430;28;20055;-71
2022/08/28 09:29:37;;;;;;;9.13;1.38;;;;;;;31.25;29.88;102276.25;5039447;28;20060;-70
2022/08/28 09:32:22;;;;;;;6.05;1.73;;;;;;;30.50;29.26;102263.81;5053589;28;20039;-71
2022/08/28 09:35:18;;;;;;;6.25;1.33;;;;;;;31.79;28.39;102268.59;5045923;28;20418;-71
2022/08/28 09:37:47;;;;;;;4.97;1.05;;;;;;;32.59;27.20;102256.81;5053297;28;20044;-71
2022/08/28 09:40:26;;;;;;;4.60;1.50;;;;;;;31.78;28.82;102262.31;5040083;28;20045;-71
2022/08/28 09:45:58;;;;;;;4.65;1.33;;;;;;;30.57;29.32;102270.47;5055421;28;20063;-71
2022/08/28 09:48:45;;;;;;;8.55;1.42;;;;;;;32.82;27.05;102267.59;5061225;28;20392;-71
2022/08/28 09:51:33;;;;;;;5.60;1.23;;;;;;;29.88;30.26;102268.16;5050943;28;20036;-71
2022/08/28 09:54:07;;;;;;;4.10;1.55;;;;;;;29.94;30.61;102267.69;5040367;28;20423;-71
2022/08/28 09:56:39;;;;;;;5.47;1.35;;;;;;;31.49;29.38;102267.28;5049845;28;20495;-72
2022/08/28 09:59:06;;;;;;;4.07;1.45;;;;;;;32.16;28.30;102265.69;5032995;28;20115;-72
2022/08/28 10:01:40;;;;;;;5.15;1.70;;;;;;;33.78;26.54;102254.16;5053620;28;20534;-72
2022/08/28 10:04:33;;;;;;;5.90;1.50;;;;;;;32.67;27.15;102256.16;5059803;28;20029;-71
2022/08/28 10:07:36;;;;;;;7.05;1.30;;;;;;;33.26;26.20;102263.06;5052517;28;20053;-72
2022/08/28 10:10:31;;;;;;;5.28;1.20;;;;;;;32.67;26.45;102260.72;5062197;28;20025;-71
2022/08/28 10:13:03;;;;;;;2.28;1.10;;;;;;;32.91;26.99;102256.03;5050586;28;20495;-72
2022/08/28 10:15:33;;;;;;;4.38;1.60;;;;;;;33.36;25.42;102259.56;5036214;28;20025;-72
2022/08/28 10:18:20;;;;;;;2.97;1.40;;;;;;;31.92;27.65;102258.53;5053259;28;20400;-71
2022/08/28 10:21:14;;;;;;;4.00;1.25;;;;;;;33.05;26.11;102262.13;5039573;28;20067;-71
2022/08/28 10:23:45;;;;;;;4.40;1.10;;;;;;;32.00;27.67;102260.63;5052191;28;20039;-71
2022/08/28 10:26:34;;;;;;;9.90;2.33;;;;;;;32.36;27.02;102260.56;5068312;28;20020;-72
2022/08/28 10:29:30;;;;;;;2.78;1.10;;;;;;;32.04;27.70;102255.84;5060598;28;20029;-72
2022/08/28 10:32:14;;;;;;;5.63;1.38;;;;;;;31.79;28.03;102265.88;5037252;28;20017;-71
2022/08/28 10:34:45;;;;;;;7.25;1.30;;;;;;;31.07;28.26;102256.91;5047272;28;20048;-72
2022/08/28 10:37:26;;;;;;;2.00;0.93;;;;;;;30.16;30.58;102260.78;5073629;28;20485;-72
2022/08/28 10:39:56;;;;;;;6.55;1.73;;;;;;;31.29;28.85;102260.69;5054789;28;20063;-71
2022/08/28 10:42:35;;;;;;;6.57;1.50;;;;;;;32.13;27.77;102265.91;5055542;28;20017;-71
2022/08/28 10:45:07;;;;;;;5.28;1.23;;;;;;;31.26;28.56;102272.59;5073285;28;20135;-72
2022/08/28 10:47:36;;;;;;;4.55;1.23;;;;;;;31.58;27.91;102261.13;5051935;28;20413;-72
2022/08/28 10:50:42;;;;;;;5.97;1.45;;;;;;;31.45;28.43;102271.19;5063932;28;20025;-71
2022/08/28 10:53:15;;;;;;;3.38;0.98;;;;;;;30.33;29.05;102266.81;5040498;28;20095;-71
2022/08/28 10:55:55;;;;;;;7.95;1.67;;;;;;;30.62;29.59;102262.91;5068070;28;20039;-71
2022/08/28 10:58:23;;;;;;;12.27;1.88;;;;;;;31.05;29.16;102266.09;5055511;28;20596;-72
2022/08/28 11:00:51;;;;;;;4.82;1.17;;;;;;;30.95;29.23;102264.06;5054293;28;20115;-71
2022/08/28 11:03:21;;;;;;;4.32;1.40;;;;;;;30.03;29.95;102265.31;5044564;28;20021;-72
2022/08/28 11:05:55;;;;;;;5.50;1.10;;;;;;;30.48;28.74;102265.72;5052937;28;20025;-72
2022/08/28 11:08:28;;;;;;;3.95;1.20;;;;;;;32.32;27.12;102270.75;5038551;28;20032;-71
2022/08/28 11:10:57;;;;;;;4.28;1.38;;;;;;;31.59;27.25;102265.59;5054297;28;20530;-71
2022/08/28 11:13:48;;;;;;;5.03;1.30;;;;;;;32.12;26.50;102269.59;5071545;28;20387;-72
2022/08/28 11:16:21;;;;;;;8.40;1.60;;;;;;;33.29;25.47;102268.22;5063691;28;20033;-72
2022/08/28 11:19:05;;;;;;;8.75;1.77;;;;;;;31.76;27.05;102268.84;5071661;28;20036;-71
2022/08/28 11:21:54;;;;;;;4.93;1.65;;;;;;;32.54;26.87;102266.31;5044902;28;20487;-71
2022/08/28 11:24:38;;;;;;;8.63;1.13;;;;;;;31.84;27.63;102265.53;5050131;28;20111;-71
2022/08/28 11:27:25;;;;;;;2.75;0.90;;;;;;;31.22;28.22;102271.09;5045280;28;20028;-72
2022/08/28 11:30:14;;;;;;;8.00;1.95;;;;;;;31.51;27.12;102267.16;5042035;28;20656;-71
2022/08/28 11:32:51;;;;;;;3.25;1.30;;;;;;;31.80;27.65;102270.31;5059794;28;20016;-71
2022/08/28 11:35:19;;;;;;;5.13;1.35;;;;;;;31.72;28.24;102279.00;5059712;28;20029;-71
2022/08/28 11:37:47;;;;;;;4.95;1.77;;;;;;;31.30;28.50;102273.22;5038657;28;20763;-71
2022/08/28 11:40:17;;;;;;;3.58;0.90;;;;;;;30.59;28.41;102279.28;5036620;28;20050;-72